ADDS METAR Data INFO
IDs: Format: Raw Decoded Include TAF

Data at: 1049 UTC 19 Oct 2017

KIJX 191035Z AUTO 20007KT 10SM CLR 13/09 A3012 RMK AO2 T01250085
KIJX 191015Z AUTO 19008KT 10SM CLR 13/09 A3011 RMK AO2 T01250085
KIJX 190955Z AUTO 20007KT 10SM CLR 13/09 A3010 RMK AO2 T01250085
KIJX 190935Z AUTO 20007KT 10SM CLR 12/08 A3010 RMK AO2 T01240083
KIJX 190915Z AUTO 20007KT 10SM CLR 12/08 A3010 RMK AO2 T01220083
KIJX 190855Z AUTO 19006KT 10SM CLR 12/08 A3010 RMK AO2 T01230083
KIJX 190835Z AUTO 19006KT 10SM CLR 13/08 A3010 RMK AO2 T01250082
KIJX 190815Z AUTO 19005KT 10SM CLR 13/08 A3010 RMK AO2 T01300082
KIJX 190755Z AUTO 19006KT 10SM CLR 13/08 A3010 RMK AO2 T01310083
KIJX 190735Z AUTO 19006KT 10SM CLR 14/08 A3010 RMK AO2 T01350082
KIJX 190715Z AUTO 18006KT 10SM CLR 14/08 A3010 RMK AO2 T01370083
KIJX 190655Z AUTO 18007KT 10SM CLR 14/08 A3009 RMK AO2 T01370083
KIJX 190635Z AUTO 18006KT 10SM CLR 14/08 A3009 RMK AO2 T01360083
KIJX 190615Z AUTO 18006KT 10SM CLR 14/08 A3010 RMK AO2 T01350083
KIJX 190555Z AUTO 18005KT 10SM CLR 14/08 A3010 RMK AO2 T01370083 10177 20137 402250084
KIJX 190535Z AUTO 18006KT 10SM CLR 14/08 A3010 RMK AO2 T01400083
KIJX 190515Z AUTO 18006KT 10SM CLR 14/09 A3010 RMK AO2 T01390085
KIJX 190455Z AUTO 18006KT 10SM CLR 14/09 A3010 RMK AO2 T01410085
KIJX 190435Z AUTO 17006KT 10SM CLR 15/08 A3010 RMK AO2 T01450084
KIJX 190415Z AUTO 18006KT 10SM CLR 15/08 A3010 RMK AO2 T01470084
KIJX 190355Z AUTO 19005KT 10SM CLR 15/08 A3009 RMK AO2 T01480083
KIJX 190335Z AUTO 19005KT 10SM CLR 15/08 A3009 RMK AO2 T01520084
KIJX 190315Z AUTO 19005KT 10SM CLR 16/08 A3008 RMK AO2 T01550083
KIJX 190255Z AUTO 17005KT 10SM CLR 16/08 A3008 RMK AO2 T01550083
KIJX 190235Z AUTO 17005KT 10SM CLR 16/08 A3008 RMK AO2 T01580081
KIJX 190215Z AUTO 17006KT 10SM CLR 16/08 A3007 RMK AO2 T01630080
KIJX 190155Z AUTO 16008KT 10SM CLR 17/08 A3007 RMK AO2 T01650079
KIJX 190135Z AUTO 16007KT 10SM CLR 17/08 A3007 RMK AO2 T01670076
KIJX 190115Z AUTO 16007KT 10SM CLR 17/08 A3007 RMK AO2 T01720075
KIJX 190055Z AUTO 16006KT 10SM CLR 17/08 A3007 RMK AO2 T01700075
KIJX 190035Z AUTO 15007KT 10SM CLR 17/08 A3007 RMK AO2 T01680076
KIJX 190015Z AUTO 15006KT 10SM CLR 17/08 A3007 RMK AO2 T01730075
KIJX 182355Z AUTO 16006KT 10SM CLR 18/07 A3007 RMK AO2 T01770074 10225 20171
KIJX 182335Z AUTO 15005KT 10SM CLR 18/07 A3007 RMK AO2 T01770070
KIJX 182315Z AUTO 16005KT 10SM CLR 19/07 A3007 RMK AO2 T01910068
KIJX 182255Z AUTO 17007KT 10SM CLR 20/07 A3007 RMK AO2 T02000068
KIJX 182235Z AUTO 17007KT 10SM CLR 21/07 A3007 RMK AO2 T02080068
KIJX 182215Z AUTO 17007KT 10SM CLR 22/07 A3007 RMK AO2 T02150067
KIJX 182155Z AUTO 19009KT 10SM CLR 22/06 A3007 RMK AO2 T02200055
KIJX 182135Z AUTO 19011G18KT 10SM CLR 22/05 A3007 RMK AO2 T02200050
KIJX 182115Z AUTO 19013KT 10SM CLR 22/06 A3007 RMK AO2 T02200059
KIJX 182055Z AUTO 19011G16KT 10SM CLR 22/06 A3007 RMK AO2 T02210056
KIJX 182035Z AUTO 18010G14KT 10SM CLR 23/06 A3008 RMK AO2 T02250058
KIJX 182015Z AUTO 18010G16KT 10SM CLR 22/06 A3008 RMK AO2 T02230058
KIJX 181955Z AUTO 19011KT 10SM CLR 22/06 A3008 RMK AO2 T02210063
KIJX 181935Z AUTO 19010G14KT 10SM CLR 22/07 A3009 RMK AO2 T02210065
KIJX 181915Z AUTO 18009G17KT 10SM CLR 22/06 A3009 RMK AO2 T02160064
KIJX 181855Z AUTO 21007G15KT 10SM CLR 22/06 A3010 RMK AO2 T02150061
KIJX 181835Z AUTO 18011G16KT 10SM CLR 21/06 A3010 RMK AO2 T02120064
KIJX 181815Z AUTO 20011G15KT 10SM CLR 21/07 A3011 RMK AO2 T02090066
KIJX 181755Z AUTO 19008G14KT 10SM CLR 20/06 A3012 RMK AO2 P0001 60001 T02020062 10202 20085
KIJX 181735Z AUTO 20009G14KT 10SM CLR 20/07 A3013 RMK AO2 P0001 T01990067
KIJX 181715Z AUTO 19008KT 10SM CLR 19/07 A3014 RMK AO2 T01900070
KIJX 181655Z AUTO 19010G15KT 10SM CLR 18/07 A3015 RMK AO2 T01840068
KIJX 181635Z AUTO 20009KT 10SM CLR 18/07 A3016 RMK AO2 T01770066
KIJX 181615Z AUTO 19008KT 10SM CLR 17/07 A3016 RMK AO2 T01730068
KIJX 181555Z AUTO 20010KT 10SM CLR 17/07 A3017 RMK AO2 T01650065
KIJX 181535Z AUTO 19011KT 10SM CLR 16/06 A3018 RMK AO2 T01580062
KIJX 181515Z AUTO 21011KT 10SM CLR 15/06 A3018 RMK AO2 T01540062
KIJX 181455Z AUTO 20009G14KT 10SM CLR 15/06 A3018 RMK AO2 T01450060
KIJX 181435Z AUTO 19009KT 10SM CLR 14/06 A3018 RMK AO2 T01350061
KIJX 181415Z AUTO 19010KT 10SM CLR 13/06 A3018 RMK AO2 T01250057
KIJX 181355Z AUTO 19007KT 10SM CLR 12/06 A3018 RMK AO2 T01150056
KIJX 181335Z AUTO 18008KT 10SM CLR 11/06 A3018 RMK AO2 T01080055
KIJX 181315Z AUTO 17007KT 10SM CLR 10/05 A3017 RMK AO2 T00990053
KIJX 181255Z AUTO 17007KT 10SM CLR 09/05 A3017 RMK AO2 T00920051
KIJX 181235Z AUTO 17008KT 10SM CLR 09/05 A3017 RMK AO2 T00870050
KIJX 181215Z AUTO 18007KT 10SM CLR 09/05 A3017 RMK AO2 T00850050
KIJX 181155Z AUTO 17007KT 10SM CLR 09/05 A3016 RMK AO2 T00900050 10108 20084
KIJX 181135Z AUTO 17008KT 10SM CLR 09/05 A3016 RMK AO2 T00900049
KIJX 181115Z AUTO 17008KT 10SM CLR 09/05 A3017 RMK AO2 T00880050
KIJX 181055Z AUTO 17007KT 10SM CLR 09/05 A3017 RMK AO2 T00870048
KIJX 181035Z AUTO 17007KT 10SM CLR 09/05 A3017 RMK AO2 T00870048
KIJX 181015Z AUTO 17007KT 10SM CLR 09/05 A3016 RMK AO2 T00850048
KIJX 180955Z AUTO 17006KT 10SM CLR 08/05 A3016 RMK AO2 T00840048
KIJX 180935Z AUTO 16006KT 10SM CLR 09/05 A3016 RMK AO2 T00890050
KIJX 180915Z AUTO 17005KT 10SM CLR 09/05 A3016 RMK AO2 T00870049
KIJX 180855Z AUTO 17005KT 10SM CLR 09/05 A3016 RMK AO2 T00920050
KIJX 180835Z AUTO 17005KT 10SM CLR 10/05 A3016 RMK AO2 T00960050
KIJX 180815Z AUTO 17006KT 10SM CLR 09/05 A3016 RMK AO2 T00920050
KIJX 180755Z AUTO 17005KT 10SM CLR 10/05 A3017 RMK AO2 T00960050
KIJX 180735Z AUTO 17005KT 10SM CLR 10/05 A3017 RMK AO2 T00970050
KIJX 180715Z AUTO 17005KT 10SM CLR 10/05 A3017 RMK AO2 T00960050
KIJX 180655Z AUTO 17005KT 10SM CLR 10/05 A3017 RMK AO2 T01000049
KIJX 180635Z AUTO 17005KT 10SM CLR 10/05 A3017 RMK AO2 T01030048
KIJX 180615Z AUTO 18005KT 10SM CLR 11/05 A3017 RMK AO2 T01060049
KIJX 180555Z AUTO 18005KT 10SM CLR 11/05 A3017 RMK AO2 T01090048 10150 20100 402080073
KIJX 180535Z AUTO 17007KT 10SM CLR 11/05 A3017 RMK AO2 T01130049
KIJX 180515Z AUTO 17008KT 10SM CLR 12/05 A3017 RMK AO2 T01160048
KIJX 180455Z AUTO 16007KT 10SM CLR 12/05 A3018 RMK AO2 T01160048
KIJX 180435Z AUTO 16007KT 10SM CLR 12/05 A3018 RMK AO2 T01160049
KIJX 180415Z AUTO 16006KT 10SM CLR 12/05 A3018 RMK AO2 T01170050
KIJX 180350Z AUTO 16006KT 10SM CLR 12/05 A3018 RMK AO2 T01200050
KIJX 180335Z AUTO 16005KT 10SM CLR 12/05 A3018 RMK AO2 T01190050
KIJX 180315Z AUTO 14005KT 10SM CLR 11/05 A3018 RMK AO2 T01100049
KIJX 180255Z AUTO 15005KT 10SM CLR 11/05 A3018 RMK AO2 T01090051
KIJX 180235Z AUTO 15005KT 10SM CLR 10/05 A3018 RMK AO2 T01000050
KIJX 180215Z AUTO 14005KT 10SM CLR 10/05 A3018 RMK AO2 T01020050
KIJX 180155Z AUTO 14005KT 10SM CLR 11/05 A3018 RMK AO2 T01090050
KIJX 180135Z AUTO 15005KT 10SM CLR 12/05 A3018 RMK AO2 T01180050
KIJX 180115Z AUTO 15005KT 10SM CLR 12/05 A3017 RMK AO2 T01160051
KIJX 180055Z AUTO 14005KT 10SM CLR 13/05 A3018 RMK AO2 T01270051
KIJX 180035Z AUTO 15005KT 10SM CLR 14/05 A3018 RMK AO2 T01360049
KIJX 180015Z AUTO 15005KT 10SM CLR 15/05 A3017 RMK AO2 T01450050
KIJX 172355Z AUTO 16005KT 10SM CLR 15/05 A3016 RMK AO2 T01500051 10208 20149
KIJX 172335Z AUTO 16004KT 10SM CLR 16/05 A3016 RMK AO2 T01550053
KIJX 172315Z AUTO 18004KT 10SM CLR 17/05 A3016 RMK AO2 T01650051
KIJX 172255Z AUTO 19007KT 10SM CLR 18/05 A3016 RMK AO2 T01790049